This is the latest recevied weather packets stored in our database for station/object HS5NMF. If no packets are shown the sender has not sent any weather packets the latest 10 day(s).
| Time | Temp. | Humidity | Pressure | Rain* | Wind** | Luminosity | Snow |
|---|---|---|---|---|---|---|---|
| 1777845587 | 28.33° C | 85% | 977 hPa | - | - | 0 W/m² | - |
| 1777845267 | 28.33° C | 85% | 977 hPa | - | - | 0 W/m² | - |
| 1777844942 | 28.33° C | 83% | 977 hPa | - | - | 0 W/m² | - |
| 1777844620 | 28.89° C | 83% | 977 hPa | - | - | 0 W/m² | - |
| 1777844296 | 28.89° C | 82% | 977 hPa | - | - | 0 W/m² | - |
| 1777843975 | 28.33° C | 85% | 977 hPa | - | - | 0 W/m² | - |
| 1777843650 | 28.89° C | 84% | 977 hPa | - | - | 0 W/m² | - |
| 1777843329 | 28.89° C | 83% | 977 hPa | - | - | 0 W/m² | - |
| 1777843004 | 28.89° C | 82% | 977 hPa | - | - | 0 W/m² | - |
| 1777842680 | 28.89° C | 82% | 977 hPa | - | - | 0 W/m² | - |
| 1777842358 | 29.44° C | 81% | 977 hPa | - | - | 0 W/m² | - |
| 1777842036 | 28.89° C | 82% | 977 hPa | - | - | 0 W/m² | - |
| 1777841712 | 29.44° C | 81% | 977 hPa | - | - | 0 W/m² | - |
| 1777841389 | 29.44° C | 81% | 977 hPa | - | - | 0 W/m² | - |
| 1777841066 | 28.89° C | 83% | 977 hPa | - | - | 0 W/m² | - |
| 1777840742 | 28.89° C | 83% | 977 hPa | - | - | 0 W/m² | - |
| 1777840420 | 29.44° C | 81% | 977 hPa | - | - | 0 W/m² | - |
| 1777840098 | 28.89° C | 82% | 977 hPa | - | - | 0 W/m² | - |
| 1777839779 | 28.89° C | 81% | 977 hPa | - | - | 0 W/m² | - |
| 1777839453 | 29.44° C | 79% | 977 hPa | - | - | 0 W/m² | - |
| 1777839130 | 29.44° C | 79% | 977 hPa | - | - | 0 W/m² | - |
| 1777838807 | 29.44° C | 79% | 977 hPa | - | - | 0 W/m² | - |
| 1777838485 | 30° C | 77% | 977 hPa | - | - | 0 W/m² | - |
| 1777838162 | 29.44° C | 79% | 977 hPa | - | - | 0 W/m² | - |
| 1777837838 | 28.89° C | 82% | 977 hPa | - | - | 0 W/m² | - |
* Rain since midnight (hover to see other rain measurements)
** Current wind speed in m/s (hover to see current wind gust speed)